Meteo Giornale » Osservazioni meteo Italia » Falconara

ore: 09:50 - Osservazioni Meteo Falconara
Lat. 43° 37' N Lon. 13° 22' E Alt. 12 metri s.l.m.

poco_nuvoloso Europe/Rome

17 °C

Poco Nuvoloso

Temp. 24 Ore

8 °C

20 °C

Sud/Sud-Est

9.3 Km/h

Dew point 10 °C

Umidità 63 %

Visibilità  10 Km

Il sole sorge alle ore 06:01

Il sole tramonta alle ore 18:24

Data e Ora Cielo e Fenomeni T °C DP °C Um. % Pres. hPa Vis. km Vento km/h
Oggi h: 09:50 poco_nuvoloso Poco Nuvoloso 17 10 63 1017 10 S/SE 9.3
Oggi h: 08:50 poco_nuvoloso Poco Nuvoloso 15 11 76 1017 10 S/SE 13
Oggi h: 07:50 poco_nuvoloso Poco Nuvoloso 13 10 81 1016 10 S/SE 9.3
Oggi h: 06:50 poco_nuvoloso Poco Nuvoloso 8 6 87 1016 10 N 3.7
Oggi h: 05:50 sereno Sereno 8 7 93 1015 10 N 3.7
Oggi h: 04:50 poco_nuvoloso Poco Nuvoloso 10 7 81 1015 10 S/SE 7.4
Oggi h: 03:50 nuvoloso Nuvoloso 10 7 81 1015 10 N 1.8
Oggi h: 02:50 nuvoloso Nuvoloso 11 8 81 1015 10 S/SE 7.4
Oggi h: 01:50 nuvoloso Nuvoloso 11 8 81 1015 10 S 9.3
Oggi h: 00:50 nuvoloso Nuvoloso 12 9 81 1015 10 S 7.4
Ieri h: 23:50 molto_nuvoloso Molto Nuvoloso 10 8 87 1015 10 N 1.8
Ieri h: 22:50 nuvoloso Nuvoloso 13 10 81 1014 10 S/SE 7.4
Ieri h: 21:50 molto_nuvoloso Molto Nuvoloso 14 11 82 1015 10 N 3.7
Ieri h: 20:50 molto_nuvoloso Molto Nuvoloso 15 11 76 1014 10 S/SE 7.4
Ieri h: 19:50 nuvoloso Nuvoloso 15 11 76 1014 10 S/SO 9.3
Ieri h: 18:50 nuvoloso Nuvoloso 15 10 72 1013 10 S/SE 11.1
Ieri h: 16:50 nuvoloso Nuvoloso 17 11 67 1012 10 SE 9.3
Ieri h: 15:50 nuvoloso Nuvoloso 18 11 63 1012 10 S/SE 11.1
Ieri h: 14:50 molto_nuvoloso Molto Nuvoloso 18 12 67 1012 10 SE 9.3
Ieri h: 13:50 molto_nuvoloso Molto Nuvoloso 18 12 67 1012 10 N 5.5
Ieri h: 12:50 molto_nuvoloso Molto Nuvoloso 20 11 56 1012 10 N 5.5
Ieri h: 11:50 nuvoloso Nuvoloso 19 12 63 1012 10 NE 11.1
Ieri h: 10:50 nuvoloso Nuvoloso 19 13 68 1012 10 N/NE 7.4